.
WxDataArchive / Data Records for 2016-05-07
2016-05-06 May 2016 2016-05-08

Data Records for Saturday, 07 May 2016

Time	Temp	Chill	HIndex	Humid	Dewpt	 Wind 	HiWind	WindDir	Rain 	Barom
-----	----	-----	------	-----	-----	------	------	-------	-----	-----
00:00	53.5	53.5	53.5	73	45.1	0	0	---	0.00	29.784 
00:05	53.5	53.5	53.5	73	45.1	0	0	---	0.00	29.784 
00:10	53.6	53.6	53.6	74	45.5	0	0	---	0.00	29.784 
00:15	53.8	53.8	53.8	74	45.7	0	0	---	0.00	29.778 
00:20	53.8	53.8	53.8	73	45.3	0	0	---	0.00	29.778 
00:25	53.8	53.8	53.8	73	45.3	0	0	---	0.00	29.778 
00:30	53.8	53.8	53.8	73	45.3	0	0	---	0.00	29.767 
00:35	53.8	53.8	53.8	73	45.3	0	0	---	0.00	29.767 
00:40	53.9	53.9	53.9	73	45.4	0	0	---	0.00	29.767 
00:45	53.9	53.9	53.9	72	45.1	0	0	---	0.00	29.766 
00:50	53.9	53.9	53.9	71	44.7	0	0	---	0.00	29.766 
00:55	54.2	54.2	54.2	70	44.6	0	0	---	0.00	29.766 
01:00	54.4	54.4	54.4	69	44.4	0	0	---	0.00	29.754 
01:05	54.5	54.5	54.5	69	44.5	0	0	---	0.00	29.754 
01:10	54.8	54.8	54.8	68	44.4	0	0	---	0.00	29.754 
01:15	55.0	55.0	55.0	67	44.2	0	0	---	0.00	29.749 
01:20	55.3	55.3	55.3	66	44.1	0	0	---	0.00	29.749 
01:25	55.6	55.6	55.6	66	44.4	0	0	---	0.00	29.749 
01:30	55.6	55.6	55.6	66	44.4	0	0	---	0.00	29.746 
01:35	55.6	55.6	55.6	66	44.4	0	0	---	0.00	29.746 
01:40	55.6	55.6	55.6	66	44.4	0	0	---	0.00	29.746 
01:45	55.3	55.3	55.3	66	44.1	0	0	---	0.00	29.742 
01:50	55.1	55.1	55.1	67	44.3	0	0	---	0.00	29.742 
01:55	54.8	54.8	54.8	69	44.8	0	0	---	0.00	29.742 
02:00	54.7	54.7	54.7	69	44.7	0	0	---	0.00	29.736 
02:05	54.5	54.5	54.5	70	44.9	0	0	---	0.00	29.736 
02:10	54.4	54.4	54.4	69	44.4	0	0	---	0.00	29.736 
02:15	54.5	54.5	54.5	68	44.2	0	0	---	0.00	29.732 
02:20	54.5	54.5	54.5	68	44.2	0	0	---	0.00	29.732 
02:25	54.7	54.7	54.7	67	44.0	0	0	---	0.00	29.732 
02:30	55.0	55.0	55.0	67	44.2	0	0	---	0.00	29.718 
02:35	55.1	55.1	55.1	67	44.3	0	0	---	0.00	29.718 
02:40	55.3	55.3	55.3	66	44.1	0	0	---	0.00	29.718 
02:45	55.4	55.4	55.4	65	43.8	0	0	---	0.00	29.710 
02:50	55.6	55.6	55.6	65	44.0	0	0	---	0.00	29.710 
02:55	55.6	55.6	55.6	66	44.4	0	0	---	0.00	29.710 
03:00	55.6	55.6	55.6	67	44.8	0	0	---	0.00	29.703 
03:05	55.4	55.4	55.4	67	44.6	0	0	---	0.00	29.703 
03:10	55.3	55.3	55.3	67	44.5	0	0	---	0.00	29.703 
03:15	55.1	55.1	55.1	68	44.7	0	0	---	0.00	29.698 
03:20	54.8	54.8	54.8	69	44.8	0	0	---	0.00	29.698 
03:25	54.5	54.5	54.5	70	44.9	0	0	---	0.00	29.698 
03:30	54.1	54.1	54.1	71	44.9	0	0	---	0.00	29.691 
03:35	53.8	53.8	53.8	72	45.0	0	0	---	0.00	29.691 
03:40	53.5	53.5	53.5	72	44.7	0	0	---	0.00	29.691 
03:45	53.5	53.5	53.5	72	44.7	0	1	315	0.00	29.687 
03:50	53.5	53.5	53.5	73	45.1	0	0	---	0.00	29.687 
03:55	53.3	53.3	53.3	73	44.9	0	0	---	0.00	29.687 
04:00	53.2	53.2	53.2	74	45.1	0	0	---	0.00	29.685 
04:05	53.1	53.1	53.1	74	45.0	0	0	---	0.00	29.685 
04:10	52.9	52.9	52.9	74	44.8	0	0	---	0.00	29.685 
04:15	52.8	52.8	52.8	74	44.7	0	0	---	0.00	29.676 
04:20	52.9	52.9	52.9	74	44.8	0	0	---	0.00	29.676 
04:25	52.9	52.9	52.9	73	44.5	0	1	315	0.00	29.676 
04:30	53.1	53.1	53.1	73	44.7	0	0	---	0.00	29.675 
04:35	53.1	53.1	53.1	73	44.7	0	0	---	0.00	29.675 
04:40	53.1	53.1	53.1	73	44.7	0	0	---	0.00	29.675 
04:45	53.2	53.2	53.2	73	44.8	0	0	---	0.00	29.674 
04:50	53.3	53.3	53.3	73	44.9	0	0	---	0.00	29.674 
04:55	53.5	53.5	53.5	72	44.7	0	0	---	0.00	29.674 
05:00	53.6	53.6	53.6	72	44.8	0	0	---	0.00	29.670 
05:05	53.5	53.5	53.5	72	44.7	0	0	---	0.00	29.670 
05:10	53.5	53.5	53.5	72	44.7	0	0	---	0.00	29.670 
05:15	53.5	53.5	53.5	73	45.1	0	0	---	0.00	29.668 
05:20	53.3	53.3	53.3	73	44.9	0	0	---	0.00	29.668 
05:25	53.3	53.3	53.3	74	45.2	0	0	---	0.00	29.668 
05:30	53.3	53.3	53.3	74	45.2	0	1	315	0.00	29.661 
05:35	53.5	53.5	53.5	74	45.4	0	0	---	0.00	29.661 
05:40	53.5	53.5	53.5	74	45.4	0	0	---	0.00	29.661 
05:45	53.6	53.6	53.6	74	45.5	0	0	---	0.00	29.655 
05:50	53.6	53.6	53.6	74	45.5	0	0	---	0.00	29.655 
05:55	53.8	53.8	53.8	75	46.1	0	0	---	0.00	29.655 
06:00	53.8	53.8	53.8	75	46.1	0	0	---	0.00	29.653 
06:05	53.8	53.8	53.8	75	46.1	0	0	---	0.00	29.653 
06:10	53.8	53.8	53.8	75	46.1	0	0	---	0.00	29.653 
06:15	53.8	53.8	53.8	75	46.1	0	0	---	0.00	29.652 
06:20	53.8	53.8	53.8	75	46.1	0	0	---	0.00	29.652 
06:25	53.6	53.6	53.6	76	46.2	0	0	---	0.00	29.652 
06:30	53.8	53.8	53.8	76	46.4	0	0	---	0.00	29.646 
06:35	53.8	53.8	53.8	77	46.8	0	0	---	0.00	29.646 
06:40	53.8	53.8	53.8	77	46.8	0	0	---	0.00	29.646 
06:45	53.9	53.9	53.9	77	46.9	0	0	---	0.00	29.639 
06:50	54.1	54.1	54.1	77	47.0	0	0	---	0.00	29.639 
06:55	54.2	54.2	54.2	77	47.1	0	0	---	0.00	29.639 
07:00	54.4	54.4	54.4	77	47.3	0	0	---	0.00	29.641 
07:05	54.5	54.5	54.5	78	47.8	0	0	---	0.00	29.641 
07:10	54.7	54.7	54.7	77	47.6	0	1	292	0.00	29.641 
07:15	54.8	54.8	54.8	77	47.7	0	0	---	0.00	29.637 
07:20	55.1	55.1	55.1	77	48.0	0	1	292	0.00	29.637 
07:25	55.3	55.3	55.3	77	48.2	0	1	292	0.00	29.637 
07:30	55.6	55.6	55.6	77	48.5	0	1	292	0.00	29.634 
07:35	55.9	55.9	55.9	77	48.8	0	0	---	0.00	29.634 
07:40	56.0	56.0	56.0	77	48.9	0	0	---	0.00	29.634 
07:45	56.3	56.3	56.3	77	49.2	0	0	---	0.00	29.632 
07:50	56.6	56.6	56.6	77	49.5	0	0	---	0.00	29.632 
07:55	56.9	56.9	56.9	77	49.8	0	0	---	0.00	29.632 
08:00	57.3	57.3	57.3	76	49.8	0	1	0	0.00	29.636 
08:05	57.8	57.8	57.8	75	49.9	0	1	0	0.00	29.636 
08:10	58.3	58.3	58.3	75	50.4	0	1	0	0.00	29.636 
08:15	58.6	58.6	58.6	74	50.3	0	1	0	0.00	29.640 
08:20	59.2	59.2	59.2	73	50.5	0	1	0	0.00	29.640 
08:25	59.6	59.6	59.6	71	50.2	0	2	0	0.00	29.640 
08:30	60.1	60.1	60.1	70	50.3	0	1	0	0.00	29.630 
08:35	60.7	60.7	60.7	69	50.5	0	2	0	0.00	29.630 
08:40	61.0	61.0	61.0	69	50.8	0	1	0	0.00	29.630 
08:45	61.0	61.0	61.0	69	50.8	0	1	0	0.00	29.622 
08:50	61.0	61.0	61.0	69	50.8	0	2	0	0.00	29.622 
08:55	61.0	61.0	61.0	69	50.8	0	2	0	0.00	29.622 
09:00	61.0	61.0	61.0	69	50.8	0	1	0	0.00	29.622 
09:05	61.0	61.0	61.0	69	50.8	0	2	0	0.00	29.622 
09:10	61.0	61.0	61.0	69	50.8	0	2	0	0.00	29.622 
09:15	61.2	61.2	61.2	69	50.9	0	2	0	0.00	29.627 
09:20	61.5	61.5	61.5	69	51.2	1	3	0	0.00	29.627 
09:25	62.0	62.0	62.0	69	51.7	0	2	0	0.00	29.627 
09:30	62.4	62.4	62.4	68	51.7	1	2	0	0.00	29.625 
09:35	62.7	62.7	62.7	67	51.6	1	3	0	0.00	29.625 
09:40	62.9	62.9	62.9	67	51.8	1	4	315	0.00	29.625 
09:45	63.1	63.1	63.1	67	52.0	1	3	315	0.00	29.623 
09:50	63.4	63.4	63.4	66	51.8	1	3	292	0.00	29.623 
09:55	63.9	63.9	63.9	66	52.3	1	2	292	0.00	29.623 
10:00	64.2	64.2	64.2	66	52.6	0	2	315	0.00	29.624 
10:05	64.7	64.7	64.7	66	53.1	1	3	315	0.00	29.624 
10:10	65.2	65.2	65.2	65	53.1	1	3	315	0.00	29.624 
10:15	65.6	65.6	65.6	64	53.1	1	3	315	0.00	29.625 
10:20	66.3	66.3	66.3	63	53.3	1	5	315	0.00	29.625 
10:25	67.1	67.1	67.1	62	53.6	1	5	270	0.00	29.625 
10:30	67.9	67.9	67.9	61	53.9	1	4	270	0.00	29.623 
10:35	68.8	68.8	68.8	59	53.9	2	6	270	0.00	29.623 
10:40	69.1	69.1	69.1	58	53.7	2	6	292	0.00	29.623 
10:45	69.4	69.4	69.4	58	54.0	2	4	292	0.00	29.621 
10:50	70.1	70.1	70.1	57	54.1	2	5	292	0.00	29.621 
10:55	70.6	70.6	70.6	55	53.6	3	5	292	0.00	29.621 
11:00	70.4	70.4	70.4	55	53.4	2	5	292	0.00	29.620 
11:05	70.4	70.4	70.4	55	53.4	2	3	292	0.00	29.620 
11:10	70.3	70.3	70.3	55	53.4	2	5	315	0.00	29.620 
11:15	70.1	70.1	70.1	56	53.7	2	4	292	0.00	29.623 
11:20	70.6	70.6	70.6	56	54.1	1	4	292	0.00	29.623 
11:25	71.1	71.1	71.1	56	54.6	1	4	292	0.00	29.623 
11:30	71.8	71.8	71.8	57	55.7	2	5	292	0.00	29.623 
11:35	72.0	72.0	72.0	53	53.9	2	4	292	0.00	29.623 
11:40	72.0	72.0	72.0	54	54.4	3	6	270	0.00	29.623 
11:45	72.8	72.8	72.8	55	55.7	3	6	292	0.00	29.637 
11:50	73.2	73.2	73.2	51	54.0	2	6	292	0.00	29.637 
11:55	73.2	73.2	73.2	51	54.0	3	6	292	0.00	29.637 
12:00	72.7	72.7	72.7	51	53.5	3	11	270	0.00	29.637 
12:05	72.1	72.1	72.1	50	52.4	5	8	292	0.00	29.637 
12:10	71.6	71.6	71.6	50	52.0	5	11	292	0.00	29.637 
12:15	71.6	71.6	71.6	52	53.0	3	7	292	0.00	29.642 
12:20	71.6	71.6	71.6	52	53.0	3	7	292	0.00	29.642 
12:25	71.3	71.3	71.3	53	53.3	2	4	315	0.00	29.642 
12:30	71.1	71.1	71.1	54	53.6	1	4	315	0.00	29.627 
12:35	70.9	70.9	70.9	54	53.4	2	4	315	0.00	29.627 
12:40	70.8	70.8	70.8	54	53.3	2	5	315	0.00	29.627 
12:45	70.8	70.8	70.8	54	53.3	2	4	292	0.00	29.623 
12:50	70.6	70.6	70.6	54	53.1	2	6	292	0.00	29.623 
12:55	70.6	70.6	70.6	55	53.6	2	3	292	0.00	29.623 
13:00	70.8	70.8	70.8	55	53.8	2	5	292	0.00	29.627 
13:05	70.9	70.9	70.9	55	53.9	2	5	315	0.00	29.627 
13:10	71.1	71.1	71.1	55	54.1	3	4	292	0.00	29.627 
13:15	71.1	71.1	71.1	57	55.1	1	4	315	0.00	29.619 
13:20	71.6	71.6	71.6	57	55.5	1	4	315	0.00	29.619 
13:25	72.3	72.3	72.3	56	55.7	1	5	315	0.00	29.619 
13:30	73.0	73.0	73.0	53	54.8	2	5	292	0.00	29.612 
13:35	73.3	73.3	73.3	52	54.6	1	4	292	0.00	29.612 
13:40	73.7	73.7	73.7	51	54.4	2	5	292	0.00	29.612 
13:45	74.2	74.2	74.2	50	54.3	1	3	292	0.00	29.604 
13:50	74.6	74.6	74.6	51	55.3	2	5	292	0.00	29.604 
13:55	75.1	75.1	77.7	51	55.7	0	2	292	0.00	29.604 
14:00	75.8	75.8	78.0	50	55.8	2	5	292	0.00	29.601 
14:05	75.8	75.8	78.0	50	55.8	1	4	292	0.00	29.601 
14:10	75.8	75.8	78.0	50	55.8	2	6	292	0.00	29.601 
14:15	75.6	75.6	77.9	47	53.9	3	5	292	0.00	29.599 
14:20	75.8	75.8	78.0	48	54.7	2	7	270	0.00	29.599 
14:25	76.0	76.0	78.0	48	54.9	2	5	270	0.00	29.599 
14:30	76.3	76.3	78.2	48	55.1	2	5	292	0.00	29.596 
14:35	76.3	76.3	78.2	47	54.6	3	9	338	0.00	29.596 
14:40	76.7	76.7	78.4	48	55.5	2	6	292	0.00	29.596 
14:45	76.8	76.8	78.3	45	53.8	3	9	270	0.00	29.592 
14:50	76.8	76.8	78.3	44	53.2	3	7	270	0.00	29.592 
14:55	77.0	77.0	78.4	45	54.0	3	7	292	0.00	29.592 
15:00	77.2	77.2	78.5	45	54.2	3	6	292	0.00	29.595 
15:05	77.2	77.2	78.5	45	54.2	4	10	292	0.00	29.595 
15:10	77.0	77.0	78.4	45	54.0	3	5	292	0.00	29.595 
15:15	76.8	76.8	78.3	45	53.8	4	7	292	0.00	29.594 
15:20	77.0	77.0	78.5	47	55.2	3	6	292	0.00	29.594 
15:25	77.2	77.2	78.5	45	54.2	3	6	292	0.00	29.594 
15:30	76.8	76.8	78.4	46	54.4	3	8	292	0.00	29.596 
15:35	77.0	77.0	78.5	48	55.8	2	5	270	0.00	29.596 
15:40	77.0	77.0	78.5	47	55.2	3	7	292	0.00	29.596 
15:45	76.8	76.8	78.4	47	55.0	2	6	270	0.00	29.592 
15:50	76.5	76.5	78.3	47	54.7	4	7	270	0.00	29.592 
15:55	75.8	75.8	77.9	47	54.1	5	9	270	0.00	29.592 
16:00	75.3	75.3	77.7	46	53.1	3	9	270	0.00	29.602 
16:05	74.7	74.7	74.7	47	53.1	4	9	270	0.00	29.602 
16:10	74.2	74.2	74.2	46	52.1	4	10	292	0.00	29.602 
16:15	73.5	73.5	73.5	47	52.0	4	9	292	0.00	29.604 
16:20	73.5	73.5	73.5	46	51.4	4	7	270	0.00	29.604 
16:25	73.3	73.3	73.3	46	51.3	4	9	270	0.00	29.604 
16:30	73.2	73.2	73.2	48	52.3	4	10	292	0.00	29.619 
16:35	71.5	71.5	71.5	50	51.9	5	9	270	0.00	29.619 
16:40	70.1	70.1	70.1	52	51.6	5	12	292	0.00	29.619 
16:45	69.4	69.4	69.4	53	51.5	4	7	270	0.00	29.616 
16:50	69.4	69.4	69.4	54	52.0	4	7	270	0.00	29.616 
16:55	69.6	69.6	69.6	53	51.7	5	9	270	0.00	29.616 
17:00	69.1	69.1	69.1	54	51.7	4	10	292	0.00	29.625 
17:05	69.1	69.1	69.1	53	51.2	4	7	270	0.00	29.625 
17:10	68.6	68.6	68.6	54	51.3	5	10	292	0.00	29.625 
17:15	68.4	68.4	68.4	55	51.6	4	6	270	0.00	29.628 
17:20	68.4	68.4	68.4	55	51.6	3	7	292	0.00	29.628 
17:25	67.9	67.9	67.9	53	50.1	4	10	270	0.00	29.628 
17:30	67.3	67.3	67.3	55	50.6	4	9	292	0.00	29.640 
17:35	66.9	66.9	66.9	55	50.2	5	9	292	0.00	29.640 
17:40	66.9	66.9	66.9	56	50.7	3	7	270	0.00	29.640 
17:45	66.8	66.8	66.8	55	50.1	5	11	270	0.00	29.650 
17:50	66.3	66.3	66.3	56	50.1	4	13	292	0.00	29.650 
17:55	66.3	66.3	66.3	57	50.6	4	6	292	0.00	29.650 
18:00	66.3	66.3	66.3	56	50.1	4	9	270	0.00	29.644 
18:05	66.4	66.4	66.4	56	50.2	3	7	292	0.00	29.644 
18:10	66.6	66.6	66.6	57	50.9	3	9	315	0.00	29.644 
18:15	66.4	66.4	66.4	55	49.7	4	12	292	0.00	29.647 
18:20	66.3	66.3	66.3	56	50.1	3	9	292	0.00	29.647 
18:25	66.3	66.3	66.3	56	50.1	5	10	292	0.00	29.647 
18:30	66.1	66.1	66.1	54	49.0	5	10	292	0.00	29.658 
18:35	65.8	65.8	65.8	54	48.7	4	10	270	0.00	29.658 
18:40	65.8	65.8	65.8	54	48.7	4	11	292	0.00	29.658 
18:45	65.6	65.6	65.6	53	48.0	4	7	292	0.00	29.664 
18:50	65.5	65.5	65.5	54	48.4	4	7	292	0.00	29.664 
18:55	65.0	65.0	65.0	53	47.4	5	8	270	0.00	29.664 
19:00	64.3	64.3	64.3	53	46.8	5	11	270	0.00	29.685 
19:05	63.9	63.9	63.9	53	46.4	4	10	270	0.00	29.685 
19:10	63.1	63.1	63.1	53	45.7	5	9	292	0.00	29.685 
19:15	62.6	62.6	62.6	53	45.2	4	7	270	0.00	29.688 
19:20	62.3	62.3	62.3	52	44.4	4	7	270	0.00	29.688 
19:25	62.0	62.0	62.0	50	43.1	4	12	292	0.00	29.688 
19:30	61.8	61.8	61.8	50	43.0	3	9	292	0.00	29.692 
19:35	61.5	61.5	61.5	45	40.0	5	12	270	0.00	29.692 
19:40	61.0	61.0	61.0	43	38.3	4	7	292	0.00	29.692 
19:45	60.5	60.5	60.5	43	37.9	5	14	292	0.00	29.692 
19:50	59.9	59.9	59.9	44	37.9	5	10	292	0.00	29.692 
19:55	59.6	59.6	59.6	45	38.2	5	15	292	0.00	29.692 
20:00	59.3	59.3	59.3	46	38.5	4	6	315	0.00	29.694 
20:05	59.0	59.0	59.0	47	38.8	3	7	315	0.00	29.694 
20:10	58.7	58.7	58.7	49	39.6	3	8	292	0.00	29.694 
20:15	58.4	58.4	58.4	50	39.8	4	7	270	0.00	29.700 
20:20	58.3	58.3	58.3	50	39.7	3	11	292	0.00	29.700 
20:25	58.0	58.0	58.0	51	40.0	4	10	292	0.00	29.700 
20:30	57.6	57.6	57.6	52	40.1	3	6	292	0.00	29.707 
20:35	57.5	57.5	57.5	52	40.0	3	7	292	0.00	29.707 
20:40	57.2	57.2	57.2	53	40.2	3	5	292	0.00	29.707 
20:45	57.0	57.0	57.0	53	40.0	3	6	315	0.00	29.712 
20:50	56.9	56.9	56.9	53	39.9	3	6	292	0.00	29.712 
20:55	56.6	56.6	56.6	54	40.1	2	4	292	0.00	29.712 
21:00	56.5	56.5	56.5	54	40.1	3	6	292	0.00	29.724 
21:05	56.2	56.2	56.2	54	39.8	3	6	292	0.00	29.724 
21:10	56.0	56.0	56.0	54	39.6	2	4	292	0.00	29.724 
21:15	55.7	55.7	55.7	53	38.8	2	5	292	0.00	29.730 
21:20	55.7	55.7	55.7	53	38.8	3	6	292	0.00	29.730 
21:25	55.4	55.4	55.4	54	39.0	1	4	292	0.00	29.730 
21:30	55.1	55.1	55.1	54	38.8	2	5	270	0.00	29.739 
21:35	55.0	55.0	55.0	54	38.7	3	6	292	0.00	29.739 
21:40	54.8	54.8	54.8	54	38.5	3	6	292	0.00	29.739 
21:45	54.5	54.5	54.5	54	38.2	1	6	292	0.00	29.740 
21:50	54.4	54.4	54.4	54	38.1	1	5	292	0.00	29.740 
21:55	54.2	54.2	54.2	54	37.9	2	6	315	0.00	29.740 
22:00	54.1	54.1	54.1	54	37.8	2	6	315	0.00	29.741 
22:05	54.1	54.1	54.1	53	37.4	3	11	292	0.00	29.741 
22:10	53.9	53.9	53.9	53	37.2	2	6	315	0.00	29.741 
22:15	53.8	53.8	53.8	53	37.1	2	6	315	0.00	29.738 
22:20	53.6	53.6	53.6	53	36.9	2	9	292	0.00	29.738 
22:25	53.5	53.5	53.5	53	36.8	2	6	292	0.00	29.738 
22:30	53.3	53.3	53.3	54	37.1	1	6	292	0.00	29.743 
22:35	53.2	53.2	53.2	53	36.5	2	5	22	0.00	29.743 
22:40	53.2	53.2	53.2	54	37.0	2	7	292	0.00	29.743 
22:45	53.1	53.1	53.1	54	36.9	1	3	292	0.00	29.750 
22:50	52.9	52.9	52.9	54	36.7	1	6	292	0.00	29.750 
22:55	52.8	52.8	52.8	55	37.1	1	5	292	0.00	29.750 
23:00	52.9	52.9	52.9	54	36.7	2	5	292	0.00	29.752 
23:05	52.9	52.9	52.9	54	36.7	1	7	292	0.00	29.752 
23:10	52.8	52.8	52.8	55	37.1	1	5	292	0.00	29.752 
23:15	52.8	52.8	52.8	54	36.6	1	5	292	0.00	29.757 
23:20	52.8	52.8	52.8	54	36.6	1	6	292	0.00	29.757 
23:25	52.8	52.8	52.8	54	36.6	1	5	315	0.00	29.757 
23:30	52.6	52.6	52.6	54	36.4	1	5	338	0.00	29.765 
23:35	52.6	52.6	52.6	54	36.4	1	4	338	0.00	29.765 
23:40	52.6	52.6	52.6	55	36.9	1	4	292	0.00	29.765 
23:45	52.5	52.5	52.5	55	36.8	1	3	292	0.00	29.774 
23:50	52.3	52.3	52.3	55	36.6	0	2	292	0.00	29.774 
23:55	52.2	52.2	52.2	55	36.5	0	3	292	0.00	29.774 

CoCoRaHS
IN-AL-39
A2 Web Hosting
Creative Commons License
GoDaddy
search engine by freefind advanced

loaded 2018-11-13 01:29:36 • last modified 2010-11-18 10:43:29
Privacy PolicyDisclaimer
• wx.awcolley.com is powered by PmWiki v.2002016 •
• all content (unless otherwise noted) © 2018 A W Colley